Pagrindinis puslapis
METAR-TAF:

METAR-TAF

Oro uostai :

Naftos platforma

L9-ff-1, Nyderlandai

platuma: 53-36-52N, ilguma: 4-57-37E, Aukštis: 30 m

Dabartinis oras

Ataskaita buvo paskelbta 25 minutes, ne 12:25 UTC
Vėjas 24 kt iš Vakarų
Temperatūra 7°C
Drėgmė 76%
Slėgis 1015 hPa
Matomumas 10 km arba daugiau
Išsisklaidę debesys ne aukštis 1600 ft
Su prošvaistėmis ne aukštis 2300 ft
Apsiniaukę ne aukštis 2700 ft

METAR: EHMG 191225Z AUTO 27024KT 9999 SCT016 BKN023 OVC027 07/03 Q1015

Laikas: 13:50 (12:50 UTC)


TAF: trūkstamas

Orai ataskaitas ir orų prognozės (METAR, TAF).

turimą stotys yra geltonos ir raudonos taškus žemėlapyje.

Perkelti pele per norėdami pamatyti stoties vardą.

Tada spustelėkite, norėdami matyti oro stebėjimo ir prognozės.

Norėdami pakeisti žemėlapį: spustelėkite ant žalios mygtukų su juodo kryžiaus žemyn,; žalią mygtuką su brūkšneliu, jei norite nutolinti; arba žalių rodyklių gretimoms žemėlapius.


METAR-TAF: